Time;durP1;ratioP1;P1;durP2;ratioP2;P2;SDS_P1;SDS_P2;PMS_P1;PMS_P2;Temp;Humidity;BMP_temperature;BMP_pressure;BME280_temperature;BME280_humidity;BME280_pressure;Samples;Min_cycle;Max_cycle;Signal;HPM_P1;HPM_P2
2023/03/03 00:00:31;;;;;;;3.37;3.07;;;;;;;;;;5015651;28;20223;-81
2023/03/03 00:03:02;;;;;;;2.53;2.27;;;;;;;;;;5015559;28;20210;-81
2023/03/03 00:05:32;;;;;;;2.63;2.43;;;;;;;;;;5015550;28;20211;-81
2023/03/03 00:08:00;;;;;;;2.77;2.57;;;;;;;;;;5015651;28;20307;-81
2023/03/03 00:10:29;;;;;;;4.47;4.10;;;;;;;;;;5015337;28;20258;-83
2023/03/03 00:13:00;;;;;;;3.77;2.87;;;;;;;;;;5015420;28;20196;-82
2023/03/03 00:15:28;;;;;;;3.07;2.27;;;;;;;;;;5015440;28;20235;-83
2023/03/03 00:17:56;;;;;;;5.90;3.23;;;;;;;;;;5015159;28;20196;-82
2023/03/03 00:20:43;;;;;;;2.50;2.40;;;;;;;;;;5015690;28;20199;-82
2023/03/03 00:23:20;;;;;;;2.03;1.93;;;;;;;;;;5014862;28;20208;-82
2023/03/03 00:25:50;;;;;;;2.27;2.23;;;;;;;;;;5015445;28;20203;-83
2023/03/03 00:28:24;;;;;;;2.33;2.23;;;;;;;;;;5015371;28;20232;-83
2023/03/03 00:30:53;;;;;;;6.03;3.40;;;;;;;;;;5015036;28;20314;-83
2023/03/03 00:33:31;;;;;;;3.43;2.60;;;;;;;;;;5015348;28;20200;-83
2023/03/03 00:36:26;;;;;;;3.60;2.60;;;;;;;;;;5015346;28;20202;-82
2023/03/03 00:38:55;;;;;;;2.87;2.67;;;;;;;;;;5014597;28;20242;-83
2023/03/03 00:41:25;;;;;;;1.73;1.63;;;;;;;;;;5014739;28;20258;-83
2023/03/03 00:43:55;;;;;;;2.40;2.30;;;;;;;;;;5015123;28;20235;-83
2023/03/03 00:46:24;;;;;;;2.37;2.10;;;;;;;;;;5014823;28;20281;-82
2023/03/03 00:48:52;;;;;;;1.87;1.77;;;;;;;;;;5014816;28;20305;-83
2023/03/03 00:51:27;;;;;;;3.87;3.37;;;;;;;;;;5014550;28;20211;-83
2023/03/03 00:53:55;;;;;;;2.47;2.37;;;;;;;;;;5014625;28;20196;-82
2023/03/03 00:56:24;;;;;;;2.83;2.13;;;;;;;;;;5014468;28;20229;-82
2023/03/03 00:58:54;;;;;;;6.53;3.53;;;;;;;;;;5014391;28;20200;-83
2023/03/03 01:01:24;;;;;;;1.23;1.23;;;;;;;;;;5014799;28;20301;-83
2023/03/03 01:03:52;;;;;;;3.37;3.07;;;;;;;;;;5014482;28;20302;-83
2023/03/03 01:06:21;;;;;;;2.00;1.90;;;;;;;;;;5014824;28;20282;-83
2023/03/03 01:08:49;;;;;;;3.50;2.70;;;;;;;;;;5014440;28;20189;-82
2023/03/03 01:11:20;;;;;;;2.13;2.03;;;;;;;;;;5014450;28;20219;-83
2023/03/03 01:13:50;;;;;;;2.83;2.70;;;;;;;;;;5014437;28;20237;-83
2023/03/03 01:16:20;;;;;;;2.17;2.00;;;;;;;;;;5014461;28;20282;-83
2023/03/03 01:18:48;;;;;;;3.23;2.00;;;;;;;;;;5014614;28;20235;-83
2023/03/03 01:21:17;;;;;;;1.63;1.53;;;;;;;;;;5014339;28;20252;-84
2023/03/03 01:23:45;;;;;;;2.27;2.10;;;;;;;;;;5014708;28;20203;-83
2023/03/03 01:26:14;;;;;;;1.80;1.70;;;;;;;;;;5014194;28;20375;-83
2023/03/03 01:28:42;;;;;;;2.53;2.33;;;;;;;;;;5014058;28;20213;-83
2023/03/03 01:31:11;;;;;;;2.60;2.40;;;;;;;;;;5014182;28;20222;-83
2023/03/03 01:33:41;;;;;;;3.20;1.67;;;;;;;;;;5014384;28;20231;-83
2023/03/03 01:36:10;;;;;;;4.63;2.97;;;;;;;;;;5012973;28;20237;-83
2023/03/03 01:38:38;;;;;;;1.57;1.53;;;;;;;;;;5014149;28;20238;-84
2023/03/03 01:41:07;;;;;;;2.27;1.93;;;;;;;;;;5013739;28;20244;-83
2023/03/03 01:43:35;;;;;;;2.10;1.67;;;;;;;;;;5013687;28;20224;-83
2023/03/03 01:46:22;;;;;;;1.93;1.83;;;;;;;;;;5013838;28;20203;-83
2023/03/03 01:48:54;;;;;;;1.63;1.53;;;;;;;;;;5013516;28;20210;-83
2023/03/03 01:51:24;;;;;;;1.70;1.60;;;;;;;;;;5013225;28;20225;-83
2023/03/03 01:53:56;;;;;;;2.67;2.47;;;;;;;;;;5013673;28;20302;-82
2023/03/03 01:56:25;;;;;;;5.77;1.73;;;;;;;;;;5013148;28;20254;-83
2023/03/03 01:58:58;;;;;;;1.67;1.57;;;;;;;;;;5013817;28;20202;-82
2023/03/03 02:01:28;;;;;;;1.50;1.40;;;;;;;;;;5013680;28;20221;-83
2023/03/03 02:03:58;;;;;;;4.07;1.87;;;;;;;;;;5013699;28;20214;-82
2023/03/03 02:06:28;;;;;;;6.77;1.60;;;;;;;;;;5013814;28;20212;-81
2023/03/03 02:08:59;;;;;;;2.23;2.13;;;;;;;;;;5013390;28;20233;-81
2023/03/03 02:11:30;;;;;;;1.43;1.43;;;;;;;;;;5013648;28;20289;-81
2023/03/03 02:13:58;;;;;;;4.03;1.53;;;;;;;;;;5013964;28;20207;-82
2023/03/03 02:16:27;;;;;;;1.77;1.67;;;;;;;;;;5013586;28;20245;-81
2023/03/03 02:18:55;;;;;;;1.47;1.30;;;;;;;;;;5013207;28;20252;-81
2023/03/03 02:21:26;;;;;;;1.20;1.20;;;;;;;;;;5013291;28;20202;-81
2023/03/03 02:24:04;;;;;;;1.30;1.30;;;;;;;;;;5013635;28;20211;-81
2023/03/03 02:26:36;;;;;;;1.20;1.20;;;;;;;;;;5013291;28;20269;-81
2023/03/03 02:29:05;;;;;;;1.17;1.17;;;;;;;;;;5013680;28;20229;-81
2023/03/03 02:31:33;;;;;;;1.63;1.53;;;;;;;;;;5013395;28;20284;-83
2023/03/03 02:34:02;;;;;;;1.23;1.23;;;;;;;;;;5013802;28;20203;-83
2023/03/03 02:36:31;;;;;;;1.10;1.10;;;;;;;;;;5013392;28;20200;-83
2023/03/03 02:39:02;;;;;;;1.53;1.50;;;;;;;;;;5013184;28;20408;-83
2023/03/03 02:41:33;;;;;;;1.50;1.40;;;;;;;;;;5013256;28;20221;-83
2023/03/03 02:44:04;;;;;;;1.40;1.40;;;;;;;;;;5013085;28;20232;-82
2023/03/03 02:46:34;;;;;;;1.30;1.23;;;;;;;;;;5014394;28;20443;-82
2023/03/03 02:49:02;;;;;;;1.10;1.10;;;;;;;;;;5017222;28;20234;-83
2023/03/03 02:51:31;;;;;;;1.17;1.17;;;;;;;;;;5016745;28;20435;-83
2023/03/03 02:53:59;;;;;;;3.13;1.87;;;;;;;;;;5016784;28;20199;-83
2023/03/03 02:56:28;;;;;;;1.27;1.27;;;;;;;;;;5016882;28;20326;-83
2023/03/03 02:58:57;;;;;;;3.57;1.30;;;;;;;;;;5016459;28;20204;-83
2023/03/03 03:01:26;;;;;;;1.40;1.40;;;;;;;;;;5016918;28;20207;-83
2023/03/03 03:03:55;;;;;;;1.10;1.10;;;;;;;;;;5016996;28;20200;-83
2023/03/03 03:06:24;;;;;;;1.33;1.33;;;;;;;;;;5016835;28;20207;-83
2023/03/03 03:08:52;;;;;;;1.57;1.47;;;;;;;;;;5016324;28;20191;-83
2023/03/03 03:11:21;;;;;;;1.20;1.20;;;;;;;;;;5016584;28;20284;-83
2023/03/03 03:13:49;;;;;;;1.63;1.53;;;;;;;;;;5016802;28;20205;-83
2023/03/03 03:16:17;;;;;;;1.93;1.80;;;;;;;;;;5016439;28;20232;-84
2023/03/03 03:18:49;;;;;;;1.00;1.00;;;;;;;;;;5016944;28;20221;-83
2023/03/03 03:21:17;;;;;;;1.57;1.57;;;;;;;;;;5016176;28;20227;-83
2023/03/03 03:23:45;;;;;;;1.10;1.10;;;;;;;;;;5016410;28;20231;-84
2023/03/03 03:26:14;;;;;;;0.90;0.90;;;;;;;;;;5016221;28;20202;-83
2023/03/03 03:28:42;;;;;;;1.03;1.03;;;;;;;;;;5016308;28;20207;-83
2023/03/03 03:31:11;;;;;;;1.00;1.00;;;;;;;;;;5016275;28;20333;-83
2023/03/03 03:33:39;;;;;;;1.77;1.67;;;;;;;;;;5015783;28;20328;-83
2023/03/03 03:36:10;;;;;;;1.10;1.10;;;;;;;;;;5016331;28;20238;-83
2023/03/03 03:38:38;;;;;;;1.00;1.00;;;;;;;;;;5016012;28;20207;-83
2023/03/03 03:41:07;;;;;;;1.00;1.00;;;;;;;;;;5016047;28;20333;-83
2023/03/03 03:43:36;;;;;;;1.00;1.00;;;;;;;;;;5016452;28;20194;-83
2023/03/03 03:46:04;;;;;;;1.10;1.10;;;;;;;;;;5015834;28;20203;-83
2023/03/03 03:48:33;;;;;;;1.00;1.00;;;;;;;;;;5015689;28;20244;-81
2023/03/03 03:51:02;;;;;;;1.00;1.00;;;;;;;;;;5016267;28;20203;-81
2023/03/03 03:53:31;;;;;;;1.30;1.30;;;;;;;;;;5015622;28;20219;-81
2023/03/03 03:56:00;;;;;;;0.97;0.97;;;;;;;;;;5015573;28;20353;-81
2023/03/03 03:58:28;;;;;;;1.97;1.90;;;;;;;;;;5014595;28;20207;-80
2023/03/03 04:01:02;;;;;;;1.03;1.03;;;;;;;;;;5015554;28;20203;-81
2023/03/03 04:03:30;;;;;;;1.13;1.13;;;;;;;;;;5015781;28;20208;-81
2023/03/03 04:05:59;;;;;;;1.00;1.00;;;;;;;;;;5015178;28;20296;-81
2023/03/03 04:08:27;;;;;;;1.00;1.00;;;;;;;;;;5015631;28;20257;-82
2023/03/03 04:10:57;;;;;;;1.30;1.30;;;;;;;;;;5015703;28;20199;-81
2023/03/03 04:13:27;;;;;;;1.37;1.37;;;;;;;;;;5015502;28;20235;-81
2023/03/03 04:15:56;;;;;;;1.50;1.47;;;;;;;;;;5015450;28;20195;-81
2023/03/03 04:18:24;;;;;;;1.00;1.00;;;;;;;;;;5015593;28;20214;-81
2023/03/03 04:20:53;;;;;;;1.00;1.00;;;;;;;;;;5015338;28;20206;-81
2023/03/03 04:23:22;;;;;;;0.90;0.90;;;;;;;;;;5015589;28;20213;-80
2023/03/03 04:25:50;;;;;;;1.00;1.00;;;;;;;;;;5015403;28;20246;-83
2023/03/03 04:28:20;;;;;;;1.23;1.23;;;;;;;;;;5014924;28;20265;-84
2023/03/03 04:30:49;;;;;;;1.37;1.37;;;;;;;;;;5015079;28;20197;-83
2023/03/03 04:33:17;;;;;;;1.43;1.30;;;;;;;;;;5014766;28;20259;-84
2023/03/03 04:35:46;;;;;;;2.03;2.03;;;;;;;;;;5014837;28;20201;-83
2023/03/03 04:38:14;;;;;;;1.70;1.70;;;;;;;;;;5014895;28;20248;-83
2023/03/03 04:40:43;;;;;;;1.10;1.10;;;;;;;;;;5014875;28;20222;-83
2023/03/03 04:43:11;;;;;;;1.43;1.43;;;;;;;;;;5014751;28;20328;-83
2023/03/03 04:45:41;;;;;;;1.47;1.47;;;;;;;;;;5015040;28;20276;-83
2023/03/03 04:48:09;;;;;;;2.13;1.50;;;;;;;;;;5014620;28;20202;-83
2023/03/03 04:50:38;;;;;;;1.00;1.00;;;;;;;;;;5014799;28;20205;-83
2023/03/03 04:53:06;;;;;;;5.63;1.20;;;;;;;;;;5014390;28;20212;-83
2023/03/03 04:55:36;;;;;;;1.10;1.10;;;;;;;;;;5014413;28;20250;-83
2023/03/03 04:58:05;;;;;;;1.00;1.00;;;;;;;;;;5014487;28;20216;-83
2023/03/03 05:00:33;;;;;;;1.20;1.20;;;;;;;;;;5014748;28;20258;-83
2023/03/03 05:03:04;;;;;;;1.30;1.30;;;;;;;;;;5014390;28;20205;-83
2023/03/03 05:05:32;;;;;;;1.00;1.00;;;;;;;;;;5014530;28;20292;-82
2023/03/03 05:08:00;;;;;;;8.30;1.67;;;;;;;;;;5014220;28;20209;-83
2023/03/03 05:10:29;;;;;;;1.20;1.20;;;;;;;;;;5014130;28;20240;-82
2023/03/03 05:12:57;;;;;;;1.23;1.23;;;;;;;;;;5014024;28;20233;-83
2023/03/03 05:15:25;;;;;;;3.00;2.40;;;;;;;;;;5014211;28;20222;-82
2023/03/03 05:17:55;;;;;;;1.43;1.43;;;;;;;;;;5014190;28;20212;-82
2023/03/03 05:20:25;;;;;;;1.13;1.13;;;;;;;;;;5013888;28;20194;-83
2023/03/03 05:22:54;;;;;;;1.77;1.70;;;;;;;;;;5013909;28;20290;-82
2023/03/03 05:25:22;;;;;;;1.30;1.20;;;;;;;;;;5013894;28;20195;-83
2023/03/03 05:27:50;;;;;;;1.60;1.50;;;;;;;;;;5014191;28;20209;-82
2023/03/03 05:30:19;;;;;;;1.30;1.30;;;;;;;;;;5013846;28;20218;-83
2023/03/03 05:32:47;;;;;;;1.00;1.00;;;;;;;;;;5013929;28;20325;-83
2023/03/03 05:35:15;;;;;;;1.10;1.10;;;;;;;;;;5013740;28;20225;-83
2023/03/03 05:37:46;;;;;;;2.07;1.97;;;;;;;;;;5014219;28;20554;-83
2023/03/03 05:40:15;;;;;;;1.00;1.00;;;;;;;;;;5014186;28;20252;-83
2023/03/03 05:42:43;;;;;;;1.13;1.13;;;;;;;;;;5013805;28;20202;-83
2023/03/03 05:45:12;;;;;;;1.00;1.00;;;;;;;;;;5013795;28;20233;-83
2023/03/03 05:47:40;;;;;;;1.10;1.10;;;;;;;;;;5013678;28;20202;-83
2023/03/03 05:50:11;;;;;;;0.90;0.90;;;;;;;;;;5013678;28;20295;-83
2023/03/03 05:52:39;;;;;;;0.90;0.90;;;;;;;;;;5013538;28;20210;-83
2023/03/03 05:55:10;;;;;;;1.00;1.00;;;;;;;;;;5013483;28;20256;-83
2023/03/03 05:57:38;;;;;;;1.00;1.00;;;;;;;;;;5013475;28;20258;-83
2023/03/03 06:00:07;;;;;;;1.00;1.00;;;;;;;;;;5013503;28;20237;-83
2023/03/03 06:02:36;;;;;;;1.00;1.00;;;;;;;;;;5013314;28;20267;-84
2023/03/03 06:05:05;;;;;;;1.00;1.00;;;;;;;;;;5013255;28;20228;-83
2023/03/03 06:07:33;;;;;;;0.90;0.90;;;;;;;;;;5013438;28;20202;-82
2023/03/03 06:10:02;;;;;;;0.90;0.90;;;;;;;;;;5013301;28;20212;-83
2023/03/03 06:12:32;;;;;;;1.10;1.10;;;;;;;;;;5013598;28;20298;-84
2023/03/03 06:15:00;;;;;;;1.00;1.00;;;;;;;;;;5013539;28;20267;-84
2023/03/03 06:17:28;;;;;;;1.00;1.00;;;;;;;;;;5013423;28;20197;-83
2023/03/03 06:19:57;;;;;;;1.93;1.83;;;;;;;;;;5012953;28;20206;-83
2023/03/03 06:22:25;;;;;;;1.57;1.57;;;;;;;;;;5016227;28;20197;-83
2023/03/03 06:24:54;;;;;;;1.47;1.37;;;;;;;;;;5017530;28;20238;-83
2023/03/03 06:27:22;;;;;;;2.00;1.87;;;;;;;;;;5018025;28;20206;-83
2023/03/03 06:29:52;;;;;;;1.13;1.13;;;;;;;;;;5017179;28;20267;-83
2023/03/03 06:32:20;;;;;;;1.60;1.50;;;;;;;;;;5016971;28;20275;-83
2023/03/03 06:34:49;;;;;;;1.40;1.40;;;;;;;;;;5017215;28;20316;-83
2023/03/03 06:37:17;;;;;;;1.03;1.03;;;;;;;;;;5017176;28;20246;-83
2023/03/03 06:39:46;;;;;;;5.20;1.83;;;;;;;;;;5016957;28;20316;-83
2023/03/03 06:42:14;;;;;;;1.03;1.03;;;;;;;;;;5017107;28;20312;-83
2023/03/03 06:44:42;;;;;;;1.30;1.30;;;;;;;;;;5017214;28;20211;-83
2023/03/03 06:47:12;;;;;;;1.77;1.67;;;;;;;;;;5017553;28;20205;-83
2023/03/03 06:49:41;;;;;;;1.40;1.40;;;;;;;;;;5017299;28;20246;-82
2023/03/03 06:52:12;;;;;;;1.00;1.00;;;;;;;;;;5017397;28;20201;-82
2023/03/03 06:54:41;;;;;;;1.77;1.63;;;;;;;;;;5016913;28;20254;-83
2023/03/03 06:57:15;;;;;;;4.40;4.20;;;;;;;;;;5017477;28;20213;-83
2023/03/03 06:59:44;;;;;;;1.40;1.40;;;;;;;;;;5017809;28;20295;-84
2023/03/03 07:02:17;;;;;;;1.27;1.27;;;;;;;;;;5017006;28;20207;-83
2023/03/03 07:04:46;;;;;;;0.90;0.90;;;;;;;;;;5016940;28;20230;-82
2023/03/03 07:07:17;;;;;;;1.33;1.33;;;;;;;;;;5016713;28;20209;-84
2023/03/03 07:09:47;;;;;;;1.90;1.90;;;;;;;;;;5017502;28;20199;-84
2023/03/03 07:12:16;;;;;;;1.63;1.20;;;;;;;;;;5017131;28;20254;-84
2023/03/03 07:14:45;;;;;;;1.40;1.40;;;;;;;;;;5016842;28;20670;-83
2023/03/03 07:17:17;;;;;;;1.00;1.00;;;;;;;;;;5016935;28;20292;-83
2023/03/03 07:19:46;;;;;;;1.27;1.27;;;;;;;;;;5017058;28;20206;-84
2023/03/03 07:22:16;;;;;;;1.23;1.23;;;;;;;;;;5016680;28;20210;-81
2023/03/03 07:24:45;;;;;;;0.90;0.90;;;;;;;;;;5016586;28;20231;-83
2023/03/03 07:27:18;;;;;;;1.77;1.77;;;;;;;;;;5017143;28;20200;-84
2023/03/03 07:29:47;;;;;;;1.20;1.20;;;;;;;;;;5016862;28;20203;-83
2023/03/03 07:32:36;;;;;;;1.07;1.07;;;;;;;;;;5017451;28;20218;-83
2023/03/03 07:35:17;;;;;;;1.97;1.87;;;;;;;;;;5013047;28;20249;-82
2023/03/03 07:37:46;;;;;;;1.67;1.57;;;;;;;;;;5017454;28;20262;-82
2023/03/03 07:40:29;;;;;;;2.53;2.43;;;;;;;;;;5017058;28;20238;-82
2023/03/03 07:42:57;;;;;;;0.90;0.90;;;;;;;;;;5017211;28;20234;-83
2023/03/03 07:45:27;;;;;;;1.87;1.77;;;;;;;;;;5017250;28;20242;-82
2023/03/03 07:48:01;;;;;;;1.00;1.00;;;;;;;;;;5017618;28;20248;-82
2023/03/03 07:50:31;;;;;;;1.83;1.80;;;;;;;;;;5017680;28;20257;-82
2023/03/03 07:53:00;;;;;;;1.67;1.57;;;;;;;;;;5018036;28;20231;-82
2023/03/03 07:55:31;;;;;;;0.90;0.90;;;;;;;;;;5017404;28;20335;-82
2023/03/03 07:58:06;;;;;;;1.23;1.23;;;;;;;;;;5017850;28;20257;-82
2023/03/03 08:00:53;;;;;;;8.50;1.70;;;;;;;;;;5016868;28;20241;-80
2023/03/03 08:03:21;;;;;;;1.33;1.30;;;;;;;;;;5017006;28;20269;-80
2023/03/03 08:05:52;;;;;;;2.57;2.43;;;;;;;;;;5017044;28;20207;-80
2023/03/03 08:08:28;;;;;;;2.00;1.90;;;;;;;;;;5017344;28;20235;-81
2023/03/03 08:10:57;;;;;;;1.53;1.53;;;;;;;;;;5016394;28;20222;-82
2023/03/03 08:13:28;;;;;;;1.20;1.20;;;;;;;;;;5015691;28;20223;-82
2023/03/03 08:16:00;;;;;;;1.53;1.53;;;;;;;;;;5016130;28;20235;-82
2023/03/03 08:18:30;;;;;;;1.03;1.03;;;;;;;;;;5015986;28;20199;-82
2023/03/03 08:21:01;;;;;;;1.83;1.77;;;;;;;;;;5016057;28;20203;-82
2023/03/03 08:23:29;;;;;;;1.60;1.50;;;;;;;;;;5015868;28;20207;-82
2023/03/03 08:25:57;;;;;;;1.20;1.20;;;;;;;;;;5016661;28;20196;-82
2023/03/03 08:28:26;;;;;;;1.90;1.80;;;;;;;;;;5015728;28;20286;-82
2023/03/03 08:30:54;;;;;;;1.00;1.00;;;;;;;;;;5015897;28;20314;-82
2023/03/03 08:33:42;;;;;;;1.83;1.73;;;;;;;;;;5015559;28;20204;-81
2023/03/03 08:36:12;;;;;;;1.60;1.50;;;;;;;;;;5015610;28;20227;-81
2023/03/03 08:38:41;;;;;;;1.23;1.23;;;;;;;;;;5015389;28;20241;-80
2023/03/03 08:41:09;;;;;;;1.30;1.30;;;;;;;;;;5015903;28;20250;-81
2023/03/03 08:43:38;;;;;;;0.87;0.87;;;;;;;;;;5015184;28;20303;-81
2023/03/03 08:46:09;;;;;;;1.37;1.27;;;;;;;;;;5015840;28;20246;-80
2023/03/03 08:48:37;;;;;;;0.90;0.90;;;;;;;;;;5015994;28;20199;-80
2023/03/03 08:51:06;;;;;;;1.67;1.57;;;;;;;;;;5015974;28;20203;-81
2023/03/03 08:53:37;;;;;;;0.80;0.80;;;;;;;;;;5015964;28;20250;-81
2023/03/03 08:56:06;;;;;;;1.30;1.30;;;;;;;;;;5014927;28;20223;-81
2023/03/03 08:58:34;;;;;;;0.90;0.90;;;;;;;;;;5015551;28;20231;-81
2023/03/03 09:01:04;;;;;;;1.50;1.40;;;;;;;;;;5014991;28;20226;-81
2023/03/03 09:03:33;;;;;;;1.40;1.37;;;;;;;;;;5014842;28;20200;-80
2023/03/03 09:06:01;;;;;;;1.80;1.70;;;;;;;;;;5015265;28;20199;-80
2023/03/03 09:08:30;;;;;;;1.43;1.33;;;;;;;;;;5015207;28;20203;-80
2023/03/03 09:11:01;;;;;;;2.00;1.40;;;;;;;;;;5014791;28;20258;-80
2023/03/03 09:13:29;;;;;;;1.40;1.30;;;;;;;;;;5015281;28;20203;-80
2023/03/03 09:15:58;;;;;;;1.50;1.40;;;;;;;;;;5014779;28;20310;-80
2023/03/03 09:18:31;;;;;;;1.30;1.30;;;;;;;;;;5015068;28;20285;-81
2023/03/03 09:21:00;;;;;;;1.20;1.20;;;;;;;;;;5014908;28;20261;-81
2023/03/03 09:23:30;;;;;;;1.00;1.00;;;;;;;;;;5015153;28;20228;-82
2023/03/03 09:26:06;;;;;;;1.40;1.30;;;;;;;;;;5014868;28;20200;-81
2023/03/03 09:28:35;;;;;;;0.80;0.80;;;;;;;;;;5014711;28;20204;-82
2023/03/03 09:31:05;;;;;;;1.30;1.30;;;;;;;;;;5014958;28;20271;-82
2023/03/03 09:33:41;;;;;;;1.77;1.17;;;;;;;;;;5014465;28;20295;-82
2023/03/03 09:36:19;;;;;;;1.00;1.00;;;;;;;;;;5014580;28;20223;-82
2023/03/03 09:38:48;;;;;;;1.93;1.00;;;;;;;;;;5014805;28;20216;-82
2023/03/03 09:41:24;;;;;;;3.03;1.37;;;;;;;;;;5014403;28;20241;-80
2023/03/03 09:44:03;;;;;;;1.13;1.03;;;;;;;;;;5014485;28;20201;-80
2023/03/03 09:46:38;;;;;;;54.43;2.70;;;;;;;;;;5014509;28;20262;-80
2023/03/03 09:49:13;;;;;;;1.33;1.23;;;;;;;;;;5014584;28;20196;-81
2023/03/03 09:51:55;;;;;;;1.57;1.43;;;;;;;;;;5014411;28;20200;-81
2023/03/03 09:54:36;;;;;;;2.67;1.60;;;;;;;;;;5014635;28;20193;-81
2023/03/03 09:57:10;;;;;;;1.07;1.07;;;;;;;;;;5012916;28;20232;-81
2023/03/03 09:59:44;;;;;;;1.00;1.00;;;;;;;;;;5014346;28;20217;-80
2023/03/03 10:02:38;;;;;;;0.97;0.97;;;;;;;;;;5014676;28;20244;-81
2023/03/03 10:05:17;;;;;;;1.10;1.10;;;;;;;;;;5014132;28;20209;-81
2023/03/03 10:07:53;;;;;;;1.00;1.00;;;;;;;;;;5014552;28;20311;-81
2023/03/03 10:10:37;;;;;;;2.03;1.10;;;;;;;;;;5013927;28;20201;-80
2023/03/03 10:13:12;;;;;;;1.33;1.33;;;;;;;;;;5014214;28;20288;-81
2023/03/03 10:15:47;;;;;;;3.07;1.50;;;;;;;;;;5014374;28;20244;-80
2023/03/03 10:18:23;;;;;;;1.00;1.00;;;;;;;;;;5014099;28;20201;-82
2023/03/03 10:20:58;;;;;;;0.70;0.70;;;;;;;;;;5014253;28;20215;-81
2023/03/03 10:23:39;;;;;;;1.10;1.10;;;;;;;;;;5014224;28;20236;-81
2023/03/03 10:26:15;;;;;;;1.43;1.03;;;;;;;;;;5014321;28;20198;-81
2023/03/03 10:28:52;;;;;;;1.50;1.40;;;;;;;;;;5014292;28;20209;-82
2023/03/03 10:31:28;;;;;;;1.40;1.20;;;;;;;;;;5014465;28;20300;-80
2023/03/03 10:33:59;;;;;;;2.63;1.33;;;;;;;;;;5014673;28;20201;-81
2023/03/03 10:36:35;;;;;;;0.83;0.83;;;;;;;;;;5013829;28;20228;-81
2023/03/03 10:39:06;;;;;;;1.07;1.00;;;;;;;;;;5014483;28;20205;-81
2023/03/03 10:41:44;;;;;;;0.80;0.80;;;;;;;;;;5014313;28;20256;-80
2023/03/03 10:44:23;;;;;;;0.90;0.90;;;;;;;;;;5014148;28;20303;-79
2023/03/03 10:47:02;;;;;;;0.93;0.93;;;;;;;;;;5013877;28;20264;-80
2023/03/03 10:49:38;;;;;;;0.90;0.90;;;;;;;;;;5013641;28;20204;-81
2023/03/03 10:52:19;;;;;;;1.17;0.90;;;;;;;;;;5013742;28;20212;-81
2023/03/03 10:54:55;;;;;;;0.97;0.97;;;;;;;;;;5013208;28;20200;-80
2023/03/03 10:57:27;;;;;;;5.60;1.20;;;;;;;;;;5013334;28;20231;-81
2023/03/03 11:00:04;;;;;;;1.10;1.10;;;;;;;;;;5013514;28;20205;-81
2023/03/03 11:02:37;;;;;;;2.77;0.90;;;;;;;;;;5013189;28;20228;-81
2023/03/03 11:05:11;;;;;;;1.00;1.00;;;;;;;;;;5013930;28;20202;-81
2023/03/03 11:07:40;;;;;;;0.97;0.97;;;;;;;;;;5014827;28;20198;-81
2023/03/03 11:10:20;;;;;;;1.90;1.73;;;;;;;;;;5017642;28;20204;-80
2023/03/03 11:12:56;;;;;;;1.30;1.07;;;;;;;;;;5017698;28;20232;-81
2023/03/03 11:15:34;;;;;;;0.90;0.90;;;;;;;;;;5016977;28;20207;-82
2023/03/03 11:18:08;;;;;;;2.43;1.50;;;;;;;;;;5016715;28;20198;-82
2023/03/03 11:20:39;;;;;;;0.90;0.90;;;;;;;;;;5017198;28;20214;-82
2023/03/03 11:23:16;;;;;;;0.80;0.80;;;;;;;;;;5017342;28;20233;-82
2023/03/03 11:25:47;;;;;;;1.83;1.73;;;;;;;;;;5017703;28;20262;-81
2023/03/03 11:28:24;;;;;;;4.27;1.57;;;;;;;;;;5016858;28;20229;-82
2023/03/03 11:31:01;;;;;;;0.90;0.90;;;;;;;;;;5017125;28;20206;-82
2023/03/03 11:33:40;;;;;;;1.17;1.07;;;;;;;;;;5017044;28;20272;-82
2023/03/03 11:36:12;;;;;;;4.60;4.30;;;;;;;;;;5017076;28;20225;-82
2023/03/03 11:38:45;;;;;;;1.43;1.20;;;;;;;;;;5017111;28;20255;-81
2023/03/03 11:41:17;;;;;;;0.90;0.90;;;;;;;;;;5016985;28;20325;-82
2023/03/03 11:43:48;;;;;;;1.33;1.27;;;;;;;;;;5016799;28;20297;-82
2023/03/03 11:46:19;;;;;;;1.30;1.17;;;;;;;;;;5016734;28;20230;-81
2023/03/03 11:48:52;;;;;;;0.80;0.80;;;;;;;;;;5016466;28;20264;-82
2023/03/03 11:51:24;;;;;;;1.00;1.00;;;;;;;;;;5016301;28;20233;-82
2023/03/03 11:54:04;;;;;;;0.90;0.90;;;;;;;;;;5016784;28;20202;-82
2023/03/03 11:56:35;;;;;;;1.03;1.03;;;;;;;;;;5016433;28;20245;-82
2023/03/03 11:59:08;;;;;;;0.80;0.80;;;;;;;;;;5017160;28;20213;-82
2023/03/03 12:01:42;;;;;;;0.80;0.80;;;;;;;;;;5017275;28;20267;-82
2023/03/03 12:04:13;;;;;;;1.00;1.00;;;;;;;;;;5016452;28;20200;-81
2023/03/03 12:06:48;;;;;;;0.73;0.73;;;;;;;;;;5016690;28;20348;-81
2023/03/03 12:09:23;;;;;;;1.30;1.20;;;;;;;;;;5017290;28;20215;-80
2023/03/03 12:11:54;;;;;;;0.80;0.80;;;;;;;;;;5017103;28;20213;-81
2023/03/03 12:14:32;;;;;;;1.70;1.40;;;;;;;;;;5016575;28;20301;-82
2023/03/03 12:17:04;;;;;;;1.50;1.23;;;;;;;;;;5016705;28;20279;-81
2023/03/03 12:19:35;;;;;;;1.10;1.07;;;;;;;;;;5015793;28;20225;-81
2023/03/03 12:22:08;;;;;;;4.53;0.93;;;;;;;;;;5016953;28;20221;-82
2023/03/03 12:24:43;;;;;;;2.90;1.10;;;;;;;;;;5016347;28;20194;-82
2023/03/03 12:27:19;;;;;;;1.00;1.00;;;;;;;;;;5016100;28;20189;-81
2023/03/03 12:29:53;;;;;;;1.17;1.00;;;;;;;;;;5016620;28;20263;-81
2023/03/03 12:32:29;;;;;;;0.90;0.90;;;;;;;;;;5016461;28;20205;-81
2023/03/03 12:35:03;;;;;;;1.53;1.10;;;;;;;;;;5016665;28;20202;-80
2023/03/03 12:37:46;;;;;;;0.90;0.90;;;;;;;;;;5015987;28;20218;-81
2023/03/03 12:40:17;;;;;;;1.20;1.00;;;;;;;;;;5016849;28;20253;-81
2023/03/03 12:42:52;;;;;;;1.43;1.30;;;;;;;;;;5015960;28;20537;-81
2023/03/03 12:45:28;;;;;;;1.83;1.77;;;;;;;;;;5015943;28;20201;-81
2023/03/03 12:48:00;;;;;;;1.00;1.00;;;;;;;;;;5015965;28;20193;-81
2023/03/03 12:50:34;;;;;;;0.80;0.80;;;;;;;;;;5016127;28;20212;-81
2023/03/03 12:53:06;;;;;;;1.00;1.00;;;;;;;;;;5015513;28;20222;-82
2023/03/03 12:55:45;;;;;;;1.30;1.20;;;;;;;;;;5015533;28;20241;-82
2023/03/03 12:58:19;;;;;;;1.33;1.27;;;;;;;;;;5015726;28;20256;-82
2023/03/03 13:00:51;;;;;;;1.30;1.03;;;;;;;;;;5015343;28;20209;-82
2023/03/03 13:03:38;;;;;;;0.77;0.77;;;;;;;;;;5015823;28;20233;-82
2023/03/03 13:06:27;;;;;;;2.60;1.40;;;;;;;;;;5014894;28;20284;-81
2023/03/03 13:09:03;;;;;;;2.10;1.40;;;;;;;;;;5015254;28;20201;-82
2023/03/03 13:11:46;;;;;;;1.20;1.20;;;;;;;;;;5015050;28;20234;-82
2023/03/03 13:14:21;;;;;;;0.80;0.80;;;;;;;;;;5014742;28;20266;-81
2023/03/03 13:16:51;;;;;;;1.43;1.43;;;;;;;;;;5015200;28;20256;-82
2023/03/03 13:19:26;;;;;;;0.70;0.70;;;;;;;;;;5014931;28;20206;-81
2023/03/03 13:21:57;;;;;;;1.03;1.03;;;;;;;;;;5014857;28;20244;-81
2023/03/03 13:24:29;;;;;;;1.00;1.00;;;;;;;;;;5015133;28;20229;-82
2023/03/03 13:26:59;;;;;;;1.27;1.10;;;;;;;;;;5015073;28;20233;-81
2023/03/03 13:29:28;;;;;;;1.00;1.00;;;;;;;;;;5015448;28;20256;-82
2023/03/03 13:31:57;;;;;;;2.13;0.97;;;;;;;;;;5014724;28;20233;-81
2023/03/03 13:34:35;;;;;;;1.20;1.20;;;;;;;;;;5014803;28;20212;-82
2023/03/03 13:37:06;;;;;;;0.90;0.90;;;;;;;;;;5014386;28;20197;-82
2023/03/03 13:39:36;;;;;;;1.07;1.07;;;;;;;;;;5014677;28;20206;-81
2023/03/03 13:42:07;;;;;;;1.40;1.30;;;;;;;;;;5015016;28;20237;-81
2023/03/03 13:44:39;;;;;;;4.70;1.93;;;;;;;;;;5014598;28;20201;-81
2023/03/03 13:47:14;;;;;;;0.90;0.90;;;;;;;;;;5014539;28;20195;-82
2023/03/03 13:49:48;;;;;;;0.83;0.83;;;;;;;;;;5014995;28;20202;-81
2023/03/03 13:52:21;;;;;;;1.00;1.00;;;;;;;;;;5015030;28;20206;-81
2023/03/03 13:54:57;;;;;;;2.77;1.30;;;;;;;;;;5014820;28;20212;-81
2023/03/03 13:57:28;;;;;;;1.00;1.00;;;;;;;;;;5015721;28;20256;-81
2023/03/03 14:00:04;;;;;;;0.80;0.80;;;;;;;;;;5014717;28;20209;-82
2023/03/03 14:02:44;;;;;;;0.80;0.80;;;;;;;;;;5014779;28;20202;-81
2023/03/03 14:05:17;;;;;;;2.63;1.20;;;;;;;;;;5014124;28;20209;-82
2023/03/03 14:07:49;;;;;;;1.50;1.17;;;;;;;;;;5013990;28;20301;-82
2023/03/03 14:10:20;;;;;;;0.80;0.80;;;;;;;;;;5013940;28;20252;-82
2023/03/03 14:12:51;;;;;;;5.00;1.23;;;;;;;;;;5013944;28;20214;-81
2023/03/03 14:15:22;;;;;;;2.83;1.30;;;;;;;;;;5014148;28;20206;-81
2023/03/03 14:18:08;;;;;;;5.57;1.17;;;;;;;;;;5013762;28;20230;-81
2023/03/03 14:20:41;;;;;;;1.33;1.33;;;;;;;;;;5013576;28;20205;-82
2023/03/03 14:23:13;;;;;;;0.97;0.97;;;;;;;;;;5013150;28;20238;-81
2023/03/03 14:25:52;;;;;;;1.47;1.47;;;;;;;;;;5013876;28;20209;-82
2023/03/03 14:28:22;;;;;;;2.13;2.13;;;;;;;;;;5014002;28;20201;-82
2023/03/03 14:30:53;;;;;;;2.43;1.20;;;;;;;;;;5014048;28;20288;-82
2023/03/03 14:33:25;;;;;;;5.87;1.63;;;;;;;;;;5013811;28;20239;-82
2023/03/03 14:36:05;;;;;;;5.30;1.67;;;;;;;;;;5014089;28;20213;-82
2023/03/03 14:38:38;;;;;;;3.70;1.50;;;;;;;;;;5013374;28;20212;-81
2023/03/03 14:41:13;;;;;;;1.30;1.30;;;;;;;;;;5013588;28;20251;-81
2023/03/03 14:43:42;;;;;;;2.97;1.90;;;;;;;;;;5016862;28;20585;-81
2023/03/03 14:46:25;;;;;;;6.30;1.60;;;;;;;;;;5017463;28;20198;-81
2023/03/03 14:48:55;;;;;;;1.93;1.40;;;;;;;;;;5016096;28;20231;-82
2023/03/03 14:51:27;;;;;;;2.93;1.97;;;;;;;;;;5017705;28;20223;-82
2023/03/03 14:53:57;;;;;;;1.27;1.20;;;;;;;;;;5018291;28;20212;-82
2023/03/03 14:56:26;;;;;;;3.63;1.20;;;;;;;;;;5017723;28;20249;-82
2023/03/03 14:58:56;;;;;;;1.23;1.23;;;;;;;;;;5017798;28;20234;-82
2023/03/03 15:01:38;;;;;;;3.57;1.90;;;;;;;;;;5017891;28;20201;-82
2023/03/03 15:04:11;;;;;;;4.07;1.43;;;;;;;;;;5016969;28;20214;-82
2023/03/03 15:06:43;;;;;;;2.20;1.13;;;;;;;;;;5017377;28;20228;-82
2023/03/03 15:09:22;;;;;;;11.40;1.97;;;;;;;;;;5017163;28;20198;-82